Time;durP1;ratioP1;P1;durP2;ratioP2;P2;SDS_P1;SDS_P2;PMS_P1;PMS_P2;Temp;Humidity;BMP_temperature;BMP_pressure;BME280_temperature;BME280_humidity;BME280_pressure;Samples;Min_cycle;Max_cycle;Signal;HPM_P1;HPM_P2
2022/03/04 00:00:45;;;;;;;51.73;23.27;;;-0.10;99.90;;;;;;5017681;28;20190;-83
2022/03/04 00:03:11;;;;;;;46.73;20.10;;;1.20;99.90;;;;;;5035142;28;20181;-84
2022/03/04 00:05:41;;;;;;;46.13;20.77;;;0.40;99.90;;;;;;5034827;28;20259;-82
2022/03/04 00:08:07;;;;;;;47.27;20.30;;;2.10;99.90;;;;;;5035185;28;20176;-83
2022/03/04 00:10:33;;;;;;;53.20;23.57;;;0.00;99.90;;;;;;5017047;28;20188;-83
2022/03/04 00:12:59;;;;;;;46.37;21.03;;;0.00;99.90;;;;;;5035125;28;20242;-83
2022/03/04 00:15:25;;;;;;;40.93;19.33;;;1.60;99.90;;;;;;5017600;28;20638;-83
2022/03/04 00:17:51;;;;;;;42.97;19.03;;;1.00;99.90;;;;;;5017217;28;20279;-82
2022/03/04 00:20:17;;;;;;;41.73;19.20;;;1.90;99.90;;;;;;5017064;28;20262;-83
2022/03/04 00:22:43;;;;;;;44.87;20.53;;;1.60;99.90;;;;;;5017742;28;20207;-84
2022/03/04 00:25:09;;;;;;;42.77;20.93;;;0.00;99.90;;;;;;5017160;28;20180;-83
2022/03/04 00:27:35;;;;;;;53.93;24.70;;;1.50;99.90;;;;;;5017169;28;20195;-82
2022/03/04 00:30:01;;;;;;;40.43;18.70;;;0.00;99.90;;;;;;5016926;28;20244;-82
2022/03/04 00:32:27;;;;;;;42.10;19.53;;;0.00;99.90;;;;;;5017008;28;20275;-82
2022/03/04 00:34:53;;;;;;;38.47;18.10;;;0.40;99.90;;;;;;5017334;28;20191;-82
2022/03/04 00:37:19;;;;;;;42.13;18.53;;;0.20;99.90;;;;;;5016946;28;20233;-82
2022/03/04 00:39:45;;;;;;;36.40;18.77;;;0.00;99.90;;;;;;5016767;28;20657;-82
2022/03/04 00:42:11;;;;;;;35.80;16.67;;;1.50;99.90;;;;;;5016876;28;20196;-82
2022/03/04 00:44:37;;;;;;;34.27;17.63;;;-0.10;99.90;;;;;;5016587;28;20189;-82
2022/03/04 00:47:04;;;;;;;83.00;28.40;;;0.70;99.90;;;;;;5034477;28;20176;-82
2022/03/04 00:49:30;;;;;;;51.27;21.70;;;0.10;99.90;;;;;;5016625;28;20181;-82
2022/03/04 00:51:55;;;;;;;41.93;20.23;;;0.10;99.90;;;;;;5000120;28;20305;-84
2022/03/04 00:54:22;;;;;;;38.77;18.27;;;0.80;99.90;;;;;;5000394;28;20271;-84
2022/03/04 00:56:48;;;;;;;45.77;19.93;;;2.20;99.90;;;;;;5016857;28;20200;-84
2022/03/04 00:59:14;;;;;;;47.00;20.43;;;1.40;99.90;;;;;;5016541;28;20220;-83
2022/03/04 01:01:40;;;;;;;39.97;19.53;;;-0.10;99.90;;;;;;4984331;28;20183;-84
2022/03/04 01:04:05;;;;;;;41.33;18.63;;;-0.10;99.90;;;;;;5034228;28;20506;-83
2022/03/04 01:06:31;;;;;;;41.93;19.43;;;0.00;99.90;;;;;;5034042;28;20177;-83
2022/03/04 01:08:57;;;;;;;38.53;18.67;;;0.10;99.90;;;;;;5034020;28;20610;-83
2022/03/04 01:11:22;;;;;;;40.10;18.63;;;1.80;99.90;;;;;;5016682;28;20262;-83
2022/03/04 01:13:48;;;;;;;37.23;16.97;;;0.00;99.90;;;;;;5000126;28;20267;-83
2022/03/04 01:16:14;;;;;;;37.93;17.97;;;0.70;99.90;;;;;;5016390;28;20187;-83
2022/03/04 01:18:39;;;;;;;38.20;17.37;;;0.00;99.90;;;;;;4983805;28;20218;-82
2022/03/04 01:21:05;;;;;;;47.10;21.00;;;0.20;99.90;;;;;;5033552;28;20192;-83
2022/03/04 01:23:31;;;;;;;84.50;27.80;;;0.00;99.90;;;;;;5034050;28;20637;-83
2022/03/04 01:25:56;;;;;;;115.30;31.97;;;0.00;99.90;;;;;;4983811;28;20218;-83
2022/03/04 01:28:22;;;;;;;41.67;18.63;;;1.50;99.90;;;;;;4999762;28;20195;-83
2022/03/04 01:30:48;;;;;;;48.60;18.47;;;0.10;99.90;;;;;;5034073;28;20191;-83
2022/03/04 01:33:15;;;;;;;37.93;17.50;;;2.00;99.90;;;;;;5033291;28;20176;-84
2022/03/04 01:35:41;;;;;;;40.77;20.47;;;0.10;99.90;;;;;;5015999;28;20184;-84
2022/03/04 01:38:07;;;;;;;43.43;20.67;;;1.70;99.90;;;;;;5034074;28;20176;-83
2022/03/04 01:40:33;;;;;;;45.63;20.23;;;1.20;99.90;;;;;;5034363;28;20257;-84
2022/03/04 01:42:58;;;;;;;39.43;18.57;;;0.90;99.90;;;;;;5016599;28;20206;-83
2022/03/04 01:45:24;;;;;;;43.57;19.53;;;1.50;99.90;;;;;;5017550;28;20188;-84
2022/03/04 01:47:50;;;;;;;42.03;20.17;;;1.10;99.90;;;;;;5016089;28;20279;-82
2022/03/04 01:50:16;;;;;;;42.67;20.17;;;0.10;99.90;;;;;;5016901;28;20207;-83
2022/03/04 01:52:42;;;;;;;34.17;17.20;;;;;;;;;;4999149;28;20241;-83
2022/03/04 01:55:08;;;;;;;44.67;18.67;;;0.00;99.90;;;;;;5017298;28;20184;-83
2022/03/04 01:57:35;;;;;;;40.90;18.70;;;-0.10;99.90;;;;;;5033706;28;20191;-83
2022/03/04 02:00:04;;;;;;;54.03;22.23;;;0.00;99.90;;;;;;4999262;28;20568;-84
2022/03/04 02:02:29;;;;;;;137.50;43.07;;;0.00;99.90;;;;;;5015979;28;20192;-84
2022/03/04 02:04:55;;;;;;;42.50;19.27;;;0.00;99.90;;;;;;4999432;28;20322;-84
2022/03/04 02:07:22;;;;;;;40.57;19.83;;;;;;;;;;5015373;28;20197;-84
2022/03/04 02:09:47;;;;;;;33.57;17.23;;;0.00;99.90;;;;;;5032668;28;20691;-84
2022/03/04 02:12:13;;;;;;;34.90;18.07;;;0.00;99.90;;;;;;5015639;28;20181;-83
2022/03/04 02:14:39;;;;;;;41.70;21.37;;;0.60;99.90;;;;;;5015768;28;20188;-83
2022/03/04 02:17:05;;;;;;;39.77;19.53;;;0.10;99.90;;;;;;5015827;28;20243;-83
2022/03/04 02:19:30;;;;;;;36.63;18.40;;;1.30;99.90;;;;;;5015187;28;20294;-86
2022/03/04 02:22:00;;;;;;;39.83;18.80;;;0.30;99.90;;;;;;5015325;28;20189;-83
2022/03/04 02:24:28;;;;;;;36.53;17.60;;;0.10;99.90;;;;;;5033057;28;20260;-83
2022/03/04 02:26:55;;;;;;;34.97;17.43;;;0.10;99.90;;;;;;5032937;28;20539;-83
2022/03/04 02:29:21;;;;;;;37.63;20.93;;;0.10;99.90;;;;;;5015736;28;20189;-83
2022/03/04 02:31:48;;;;;;;34.57;18.43;;;0.10;99.90;;;;;;5014911;28;20181;-83
2022/03/04 02:34:14;;;;;;;36.97;18.70;;;1.90;99.90;;;;;;5033163;28;20189;-83
2022/03/04 02:36:39;;;;;;;37.90;18.63;;;0.00;99.90;;;;;;5032843;28;20185;-83
2022/03/04 02:39:06;;;;;;;42.17;21.10;;;0.00;99.90;;;;;;4998874;28;20211;-83
2022/03/04 02:41:35;;;;;;;39.13;20.23;;;0.10;99.90;;;;;;5032861;28;20187;-83
2022/03/04 02:44:04;;;;;;;40.07;20.30;;;2.30;99.90;;;;;;5015926;28;20183;-83
2022/03/04 02:46:30;;;;;;;40.20;20.40;;;-0.10;99.90;;;;;;5036592;28;20180;-83
2022/03/04 02:48:56;;;;;;;39.10;20.30;;;1.10;99.90;;;;;;5036851;28;20271;-83
2022/03/04 02:51:22;;;;;;;40.27;20.00;;;2.00;99.90;;;;;;5019023;28;20223;-83
2022/03/04 02:53:47;;;;;;;42.27;17.63;;;-0.10;99.90;;;;;;5019091;28;20301;-83
2022/03/04 02:56:13;;;;;;;39.57;18.83;;;0.60;99.90;;;;;;5036662;28;20177;-84
2022/03/04 02:58:39;;;;;;;37.63;17.87;;;1.70;99.90;;;;;;5036553;28;20649;-84
2022/03/04 03:01:05;;;;;;;39.53;18.67;;;1.60;99.90;;;;;;5018737;28;20250;-84
2022/03/04 03:03:31;;;;;;;39.27;18.33;;;1.40;99.90;;;;;;5019075;28;20179;-84
2022/03/04 03:05:57;;;;;;;42.83;19.37;;;-0.10;99.90;;;;;;5018743;28;20265;-84
2022/03/04 03:08:23;;;;;;;45.00;19.17;;;-0.20;99.90;;;;;;5036466;28;20179;-84
2022/03/04 03:10:48;;;;;;;37.40;17.23;;;0.50;99.90;;;;;;5002315;28;20544;-84
2022/03/04 03:13:14;;;;;;;37.30;19.23;;;0.00;99.90;;;;;;5002145;28;20216;-83
2022/03/04 03:15:40;;;;;;;41.87;20.83;;;0.00;99.90;;;;;;5035989;28;20188;-83
2022/03/04 03:18:06;;;;;;;42.70;19.37;;;1.40;99.90;;;;;;5002481;28;20532;-83
2022/03/04 03:20:31;;;;;;;40.63;19.63;;;1.50;99.90;;;;;;5036402;28;20216;-83
2022/03/04 03:22:57;;;;;;;46.27;21.80;;;-0.10;99.90;;;;;;5018432;28;20183;-83
2022/03/04 03:25:23;;;;;;;41.70;18.97;;;0.70;99.90;;;;;;5018776;28;20181;-83
2022/03/04 03:27:48;;;;;;;45.07;22.10;;;0.00;99.90;;;;;;5001988;28;20188;-83
2022/03/04 03:30:15;;;;;;;49.63;21.63;;;;;;;;;;5002192;28;20187;-83
2022/03/04 03:32:41;;;;;;;45.50;18.43;;;-0.20;99.90;;;;;;5018906;28;20637;-85
2022/03/04 03:35:08;;;;;;;42.37;21.33;;;-0.20;99.90;;;;;;5033329;28;20191;-83
2022/03/04 03:37:37;;;;;;;39.03;17.03;;;-0.20;99.90;;;;;;5035767;28;20180;-82
2022/03/04 03:40:04;;;;;;;44.93;21.33;;;-0.10;99.90;;;;;;5035689;28;20219;-83
2022/03/04 03:42:30;;;;;;;46.97;21.17;;;-0.20;99.90;;;;;;5019049;28;20188;-83
2022/03/04 03:44:56;;;;;;;38.90;20.53;;;-0.20;99.90;;;;;;5024291;28;20198;-83
2022/03/04 03:47:22;;;;;;;42.10;20.50;;;-0.20;99.90;;;;;;5026472;28;20161;-83
2022/03/04 03:49:47;;;;;;;42.90;20.03;;;-0.30;99.90;;;;;;5060038;28;20160;-83
2022/03/04 03:52:13;;;;;;;46.73;21.97;;;-0.20;99.90;;;;;;5042872;28;20228;-83
2022/03/04 03:54:39;;;;;;;46.83;20.53;;;0.60;99.90;;;;;;5041899;28;20174;-83
2022/03/04 03:57:05;;;;;;;41.47;20.13;;;;;;;;;;5042149;28;20197;-85
2022/03/04 03:59:31;;;;;;;44.97;20.83;;;-0.20;99.90;;;;;;5059538;28;20204;-84
2022/03/04 04:01:58;;;;;;;44.37;22.47;;;1.40;99.90;;;;;;5059366;28;20174;-84
2022/03/04 04:04:24;;;;;;;48.87;22.63;;;-0.20;99.90;;;;;;5059715;28;20212;-84
2022/03/04 04:06:50;;;;;;;44.07;18.93;;;-0.30;99.90;;;;;;5059375;28;20184;-85
2022/03/04 04:09:16;;;;;;;38.67;16.83;;;-0.20;99.90;;;;;;5021608;28;20183;-83
2022/03/04 04:11:43;;;;;;;41.63;20.50;;;-0.20;99.90;;;;;;5017190;28;20247;-84
2022/03/04 04:14:09;;;;;;;41.20;20.63;;;1.70;99.90;;;;;;5034931;28;20217;-84
2022/03/04 04:16:36;;;;;;;41.70;19.53;;;0.60;99.90;;;;;;5034892;28;20186;-83
2022/03/04 04:19:03;;;;;;;44.93;19.80;;;2.00;99.90;;;;;;5034774;28;20223;-83
2022/03/04 04:21:29;;;;;;;45.37;18.83;;;;;;;;;;5034213;28;20315;-83
2022/03/04 04:23:55;;;;;;;42.90;18.80;;;-0.10;99.90;;;;;;5000614;28;20192;-83
2022/03/04 04:26:22;;;;;;;44.73;20.07;;;1.20;99.90;;;;;;5017032;28;20181;-84
2022/03/04 04:28:50;;;;;;;44.43;19.73;;;-0.20;99.90;;;;;;5016876;28;20213;-83
2022/03/04 04:31:16;;;;;;;44.43;20.83;;;0.10;99.90;;;;;;5034793;28;20629;-83
2022/03/04 04:33:42;;;;;;;40.87;19.37;;;1.00;99.90;;;;;;5016921;28;20184;-83
2022/03/04 04:36:07;;;;;;;42.03;19.33;;;0.20;99.90;;;;;;5035023;28;20184;-83
2022/03/04 04:38:33;;;;;;;42.77;20.00;;;1.70;99.90;;;;;;5016966;28;20185;-83
2022/03/04 04:40:59;;;;;;;44.13;19.43;;;-0.20;99.90;;;;;;5020460;28;20208;-83
2022/03/04 04:43:24;;;;;;;39.60;20.13;;;-0.20;99.90;;;;;;5020251;28;20646;-83
2022/03/04 04:45:51;;;;;;;39.97;19.53;;;1.40;99.90;;;;;;5051821;28;20180;-83
2022/03/04 04:48:17;;;;;;;45.80;21.27;;;0.60;99.90;;;;;;5038021;28;20596;-84
2022/03/04 04:50:42;;;;;;;38.70;19.60;;;-0.20;99.90;;;;;;5003277;28;20218;-84
2022/03/04 04:53:08;;;;;;;47.10;21.37;;;1.30;99.90;;;;;;5031075;28;20731;-83
2022/03/04 04:55:34;;;;;;;37.23;18.57;;;1.40;99.90;;;;;;5021030;28;20191;-83
2022/03/04 04:58:00;;;;;;;39.97;18.27;;;-0.20;99.90;;;;;;5042909;28;20205;-83
2022/03/04 05:00:25;;;;;;;38.57;19.53;;;1.00;99.90;;;;;;5019697;28;20216;-83
2022/03/04 05:02:51;;;;;;;38.13;17.87;;;-0.20;99.90;;;;;;5020659;28;20188;-82
2022/03/04 05:05:18;;;;;;;40.40;18.53;;;1.00;99.90;;;;;;5012376;28;20220;-83
2022/03/04 05:07:43;;;;;;;36.27;17.60;;;-0.20;99.90;;;;;;5019248;28;20196;-84
2022/03/04 05:10:09;;;;;;;37.87;18.30;;;-0.20;99.90;;;;;;5029718;28;20204;-87
2022/03/04 05:12:35;;;;;;;45.27;19.17;;;-0.10;99.90;;;;;;5027115;28;20325;-83
2022/03/04 05:15:00;;;;;;;36.30;17.83;;;1.50;99.90;;;;;;5030848;28;20192;-83
2022/03/04 05:17:26;;;;;;;36.53;16.77;;;0.60;99.90;;;;;;5031871;28;20626;-83
2022/03/04 05:19:52;;;;;;;36.60;16.83;;;1.00;99.90;;;;;;5032599;28;20216;-83
2022/03/04 05:22:17;;;;;;;35.87;17.30;;;-0.40;99.90;;;;;;5031464;28;20519;-82
2022/03/04 05:24:43;;;;;;;43.90;20.10;;;0.00;99.90;;;;;;5031567;28;20617;-83
2022/03/04 05:27:10;;;;;;;33.87;16.53;;;-0.10;99.90;;;;;;5015330;28;20330;-82
2022/03/04 05:29:36;;;;;;;34.27;17.27;;;1.60;99.90;;;;;;5038404;28;20188;-83
2022/03/04 05:32:02;;;;;;;38.40;16.73;;;1.50;99.90;;;;;;5046090;28;20719;-83
2022/03/04 05:34:28;;;;;;;33.60;16.37;;;-0.20;99.90;;;;;;5031113;28;20191;-83
2022/03/04 05:36:54;;;;;;;40.73;18.00;;;-0.20;99.90;;;;;;5027685;28;20195;-86
2022/03/04 05:39:20;;;;;;;38.93;17.40;;;-0.10;99.90;;;;;;5044681;28;20224;-83
2022/03/04 05:41:46;;;;;;;45.93;20.37;;;2.00;99.90;;;;;;5005468;28;20267;-84
2022/03/04 05:44:12;;;;;;;40.70;17.30;;;1.90;99.90;;;;;;5017250;28;20199;-84
2022/03/04 05:46:38;;;;;;;44.70;17.50;;;-0.20;99.90;;;;;;5023149;28;20222;-84
2022/03/04 05:49:04;;;;;;;39.73;18.63;;;-0.20;99.90;;;;;;5022095;28;20242;-83
2022/03/04 05:51:30;;;;;;;36.97;18.87;;;-0.20;99.90;;;;;;5043855;28;20189;-85
2022/03/04 05:53:56;;;;;;;32.97;15.87;;;0.80;99.90;;;;;;5040211;28;20287;-86
2022/03/04 05:56:25;;;;;;;33.00;17.57;;;1.00;99.90;;;;;;5027330;28;20182;-84
2022/03/04 05:58:50;;;;;;;38.13;18.70;;;-0.10;99.90;;;;;;5023660;28;20216;-83
2022/03/04 06:01:16;;;;;;;34.53;17.00;;;1.20;99.90;;;;;;5046239;28;20189;-83
2022/03/04 06:03:43;;;;;;;37.10;16.63;;;-0.20;99.90;;;;;;5052200;28;20263;-84
2022/03/04 06:06:13;;;;;;;38.30;17.33;;;-0.20;99.90;;;;;;5053145;28;20184;-85
2022/03/04 06:08:39;;;;;;;39.10;16.87;;;2.40;99.90;;;;;;5035344;28;20189;-84
2022/03/04 06:11:08;;;;;;;38.33;18.33;;;1.20;99.90;;;;;;5053246;28;20237;-85
2022/03/04 06:13:37;;;;;;;38.83;17.67;;;0.90;99.90;;;;;;5052797;28;20216;-85
2022/03/04 06:16:03;;;;;;;29.63;15.73;;;-0.10;99.90;;;;;;5035007;28;20532;-85
2022/03/04 06:18:29;;;;;;;35.97;16.43;;;-0.10;99.90;;;;;;5054238;28;20640;-86
2022/03/04 06:20:55;;;;;;;33.07;16.10;;;2.50;99.90;;;;;;5038852;28;20187;-85
2022/03/04 06:23:21;;;;;;;31.30;14.90;;;0.00;99.90;;;;;;5038759;28;20183;-85
2022/03/04 06:25:47;;;;;;;32.87;15.93;;;0.40;99.90;;;;;;5022412;28;20181;-86
2022/03/04 06:28:12;;;;;;;34.40;15.33;;;0.00;99.90;;;;;;5056220;28;20210;-86
2022/03/04 06:30:38;;;;;;;33.10;16.83;;;0.40;99.90;;;;;;5038763;28;20195;-84
2022/03/04 06:35:51;;;;;;;31.90;15.63;;;0.00;99.90;;;;;;5045618;28;20191;-85
2022/03/04 06:38:17;;;;;;;31.93;15.27;;;1.20;99.90;;;;;;5038564;28;20188;-85
2022/03/04 06:40:45;;;;;;;31.37;13.90;;;0.10;99.90;;;;;;5038919;28;20219;-84
2022/03/04 06:43:11;;;;;;;32.10;15.23;;;0.10;99.90;;;;;;5022099;28;20252;-86
2022/03/04 06:45:38;;;;;;;39.13;18.53;;;0.20;99.90;;;;;;5056838;28;20622;-85
2022/03/04 06:48:04;;;;;;;55.97;24.67;;;2.20;99.90;;;;;;5022367;28;20190;-85
2022/03/04 06:50:29;;;;;;;37.10;19.27;;;0.20;99.90;;;;;;5021913;28;20188;-85
2022/03/04 06:52:55;;;;;;;46.90;16.40;;;0.20;99.90;;;;;;5021564;28;20750;-86
2022/03/04 06:55:21;;;;;;;25.87;13.43;;;1.00;99.90;;;;;;5055845;28;20180;-85
2022/03/04 06:57:50;;;;;;;30.80;14.60;;;0.40;99.90;;;;;;5022149;28;20180;-86
2022/03/04 07:00:15;;;;;;;34.60;16.93;;;0.50;99.90;;;;;;5021319;28;20298;-85
2022/03/04 07:02:41;;;;;;;37.40;16.70;;;2.90;99.90;;;;;;5020190;28;20615;-85
2022/03/04 07:05:09;;;;;;;33.70;16.53;;;1.80;99.90;;;;;;5020210;28;20180;-86
2022/03/04 07:07:35;;;;;;;38.60;18.47;;;0.50;99.90;;;;;;5054467;28;20187;-85
2022/03/04 07:10:02;;;;;;;33.63;17.10;;;1.80;99.90;;;;;;5039337;28;20251;-85
2022/03/04 07:12:28;;;;;;;38.37;17.03;;;;;;;;;;5007492;28;20182;-85
2022/03/04 07:14:53;;;;;;;42.50;17.40;;;0.40;99.90;;;;;;5037842;28;20312;-86
2022/03/04 07:17:20;;;;;;;31.40;15.00;;;;;;;;;;5037960;28;20676;-85
2022/03/04 07:19:45;;;;;;;34.63;15.03;;;0.60;99.90;;;;;;5055966;28;20199;-86
2022/03/04 07:22:11;;;;;;;32.60;15.83;;;0.60;99.90;;;;;;5037374;28;20262;-88
2022/03/04 07:24:37;;;;;;;36.53;16.57;;;1.30;99.90;;;;;;5037705;28;20187;-86
2022/03/04 07:27:03;;;;;;;31.60;16.57;;;0.70;99.90;;;;;;5021082;28;20183;-85
2022/03/04 07:29:29;;;;;;;34.77;16.63;;;0.70;99.90;;;;;;5054813;28;20363;-85
2022/03/04 07:31:55;;;;;;;38.87;18.00;;;2.50;99.90;;;;;;5056757;28;20259;-85
2022/03/04 07:34:24;;;;;;;30.53;15.73;;;2.10;99.90;;;;;;5037881;28;20185;-85
2022/03/04 07:36:51;;;;;;;36.60;18.57;;;0.70;99.90;;;;;;5022257;28;20185;-85
2022/03/04 07:39:17;;;;;;;39.57;18.37;;;;;;;;;;5028888;28;20203;-84
2022/03/04 07:41:43;;;;;;;33.07;17.57;;;0.70;99.90;;;;;;5034602;28;20199;-85
2022/03/04 07:44:10;;;;;;;35.53;17.47;;;0.70;99.90;;;;;;5038697;28;20187;-85
2022/03/04 07:46:36;;;;;;;37.30;17.17;;;0.70;99.90;;;;;;5009696;28;20608;-86
2022/03/04 07:49:05;;;;;;;40.23;19.80;;;0.70;99.90;;;;;;5018919;28;20257;-87
2022/03/04 07:51:31;;;;;;;38.83;19.40;;;1.80;99.90;;;;;;5034891;28;20637;-86
2022/03/04 07:53:57;;;;;;;35.97;16.33;;;0.70;99.90;;;;;;5035043;28;20228;-86
2022/03/04 07:56:23;;;;;;;33.90;18.67;;;;;;;;;;5017496;28;20220;-86
2022/03/04 07:58:49;;;;;;;36.13;17.17;;;0.80;99.90;;;;;;5000786;28;20244;-86
2022/03/04 08:01:15;;;;;;;43.53;17.47;;;2.00;99.90;;;;;;5016932;28;20188;-86
2022/03/04 08:03:42;;;;;;;32.57;14.63;;;0.70;99.90;;;;;;5016770;28;20192;-87
2022/03/04 08:06:08;;;;;;;40.97;17.70;;;1.90;99.90;;;;;;5000872;28;20628;-86
2022/03/04 08:08:34;;;;;;;40.90;17.77;;;2.70;99.90;;;;;;5016680;28;20196;-85
2022/03/04 08:11:01;;;;;;;40.13;18.40;;;0.80;99.90;;;;;;4984294;28;20196;-85
2022/03/04 08:13:27;;;;;;;37.37;18.90;;;;;;;;;;5017129;28;20188;-85
2022/03/04 08:15:52;;;;;;;47.13;20.13;;;0.80;99.90;;;;;;5034381;28;20238;-86
2022/03/04 08:18:18;;;;;;;42.43;20.10;;;0.80;99.90;;;;;;5045977;28;20171;-92
2022/03/04 08:20:44;;;;;;;44.53;18.93;;;1.50;99.90;;;;;;5037990;28;20204;-85
2022/03/04 08:23:11;;;;;;;41.27;19.60;;;;;;;;;;5029022;28;20173;-86
2022/03/04 08:25:38;;;;;;;45.23;20.63;;;;;;;;;;5048991;28;20215;-85
2022/03/04 08:28:04;;;;;;;40.37;20.67;;;0.90;99.90;;;;;;5053651;28;20187;-86
2022/03/04 08:30:29;;;;;;;38.37;19.53;;;0.90;99.90;;;;;;5003508;28;20241;-86
2022/03/04 08:32:56;;;;;;;43.83;17.70;;;;;;;;;;5054298;28;20252;-87
2022/03/04 08:35:21;;;;;;;38.53;18.33;;;0.90;99.90;;;;;;5036025;28;20620;-90
2022/03/04 08:37:47;;;;;;;49.13;19.63;;;2.60;99.90;;;;;;5054438;28;20188;-86
2022/03/04 08:40:13;;;;;;;36.10;17.77;;;1.20;99.90;;;;;;5036012;28;20569;-86
2022/03/04 08:42:41;;;;;;;34.30;16.37;;;1.20;99.90;;;;;;5036323;28;20195;-84
2022/03/04 08:45:08;;;;;;;35.47;18.53;;;2.90;99.90;;;;;;5036415;28;20183;-85
2022/03/04 08:47:34;;;;;;;30.30;15.87;;;1.50;99.90;;;;;;5053810;28;20359;-88
2022/03/04 08:49:59;;;;;;;35.40;17.30;;;2.80;99.90;;;;;;5019697;28;20187;-86
2022/03/04 08:52:25;;;;;;;31.90;16.73;;;2.50;99.90;;;;;;5053719;28;20228;-86
2022/03/04 08:54:51;;;;;;;34.67;16.47;;;1.80;99.90;;;;;;5035930;28;20207;-86
2022/03/04 08:57:16;;;;;;;28.40;15.83;;;2.80;99.90;;;;;;5053794;28;20267;-85
2022/03/04 08:59:42;;;;;;;31.30;15.27;;;1.90;99.90;;;;;;5019085;28;20215;-85
2022/03/04 09:02:09;;;;;;;28.67;12.93;;;3.10;99.90;;;;;;5035570;28;20621;-85
2022/03/04 09:04:34;;;;;;;31.17;14.90;;;1.90;99.90;;;;;;5054249;28;20181;-86
2022/03/04 09:07:00;;;;;;;26.20;13.40;;;2.10;99.90;;;;;;5035892;28;20187;-84
2022/03/04 09:09:26;;;;;;;26.77;11.60;;;4.40;99.90;;;;;;5035685;28;20276;-89
2022/03/04 09:11:52;;;;;;;27.50;12.30;;;2.60;99.90;;;;;;5048256;28;20214;-86
2022/03/04 09:14:19;;;;;;;27.00;13.07;;;2.60;99.90;;;;;;5041156;28;20645;-85
2022/03/04 09:16:45;;;;;;;28.90;14.67;;;4.70;99.90;;;;;;5016174;28;20189;-85
2022/03/04 09:19:11;;;;;;;29.20;11.07;;;2.70;99.90;;;;;;5021535;28;20238;-85
2022/03/04 09:21:37;;;;;;;22.90;10.73;;;2.20;99.90;;;;;;5031991;28;20636;-86
2022/03/04 09:24:04;;;;;;;25.93;11.33;;;3.00;99.90;;;;;;5022292;28;20184;-85
2022/03/04 09:26:30;;;;;;;35.93;14.10;;;;;;;;;;5030722;28;20191;-85
2022/03/04 09:28:56;;;;;;;24.33;11.67;;;2.20;99.90;;;;;;5039299;28;20187;-85
2022/03/04 09:31:22;;;;;;;33.67;15.67;;;2.40;99.90;;;;;;5015699;28;20188;-86
2022/03/04 09:33:48;;;;;;;26.47;13.33;;;2.70;99.90;;;;;;5033079;28;20187;-86
2022/03/04 09:36:14;;;;;;;26.23;13.17;;;3.30;99.90;;;;;;5032174;28;20204;-85
2022/03/04 09:38:41;;;;;;;24.97;10.97;;;2.50;99.90;;;;;;5015398;28;20224;-84
2022/03/04 09:41:06;;;;;;;20.70;10.20;;;2.50;99.90;;;;;;5017022;28;20268;-84
2022/03/04 09:43:32;;;;;;;17.00;7.97;;;3.00;99.90;;;;;;5035403;28;20638;-86
2022/03/04 09:45:58;;;;;;;16.53;7.47;;;4.70;99.90;;;;;;5037847;28;20192;-85
2022/03/04 09:48:24;;;;;;;21.23;9.03;;;5.40;99.90;;;;;;5053313;28;20179;-85
2022/03/04 09:50:51;;;;;;;14.00;7.40;;;3.40;99.90;;;;;;5035570;28;20638;-86
2022/03/04 09:53:17;;;;;;;13.73;7.63;;;3.30;99.90;;;;;;5052914;28;20224;-85
2022/03/04 09:55:44;;;;;;;18.13;9.00;;;3.70;99.90;;;;;;5035788;28;20591;-85
2022/03/04 09:58:11;;;;;;;19.67;8.90;;;3.70;99.90;;;;;;5018961;28;20232;-86
2022/03/04 10:00:38;;;;;;;20.17;8.13;;;3.00;99.90;;;;;;5060865;28;20226;-89
2022/03/04 10:03:04;;;;;;;16.97;7.67;;;3.10;99.90;;;;;;5075686;28;20195;-87
2022/03/04 10:05:30;;;;;;;13.00;7.13;;;3.50;99.90;;;;;;5056676;28;20188;-86
2022/03/04 10:07:55;;;;;;;12.53;6.23;;;3.10;99.90;;;;;;5044375;28;20194;-87
2022/03/04 10:10:22;;;;;;;11.87;5.97;;;3.20;99.90;;;;;;5069590;28;20243;-84
2022/03/04 10:12:55;;;;;;;9.57;5.10;;;4.60;99.90;;;;;;5066158;28;20156;-88
2022/03/04 10:15:22;;;;;;;13.30;6.67;;;3.20;99.90;;;;;;5065097;28;20224;-89
2022/03/04 10:18:03;;;;;;;14.70;6.03;;;3.30;99.90;;;;;;5048039;28;20191;-88
2022/03/04 10:20:42;;;;;;;10.93;5.97;;;3.20;99.90;;;;;;5045079;28;20208;-90
2022/03/04 10:23:11;;;;;;;10.73;5.40;;;3.30;99.90;;;;;;5065307;28;20194;-85
2022/03/04 10:25:37;;;;;;;13.13;6.37;;;3.30;99.90;;;;;;5038375;28;20200;-86
2022/03/04 10:28:10;;;;;;;12.23;5.70;;;3.30;99.90;;;;;;5040273;28;20232;-84
2022/03/04 10:30:41;;;;;;;12.77;5.80;;;3.40;99.90;;;;;;5026899;28;20207;-90
2022/03/04 10:33:07;;;;;;;12.70;5.70;;;;;;;;;;5065700;28;20189;-85
2022/03/04 10:35:33;;;;;;;7.93;4.83;;;3.90;99.90;;;;;;5045764;28;20192;-84
2022/03/04 10:37:59;;;;;;;12.33;6.17;;;4.10;99.90;;;;;;5033804;28;20187;-85
2022/03/04 10:40:29;;;;;;;11.73;5.97;;;3.80;99.90;;;;;;5009790;28;20207;-84
2022/03/04 10:43:02;;;;;;;13.00;5.43;;;4.00;99.90;;;;;;5037838;28;20205;-85
2022/03/04 10:45:46;;;;;;;13.93;6.30;;;4.90;99.90;;;;;;5035721;28;20315;-84
2022/03/04 10:48:17;;;;;;;17.23;5.97;;;4.90;99.90;;;;;;5029737;28;20183;-84
2022/03/04 10:50:52;;;;;;;10.03;5.63;;;4.20;99.90;;;;;;5032489;28;20629;-83
2022/03/04 10:53:23;;;;;;;10.50;4.90;;;3.70;99.90;;;;;;5035013;28;20233;-83
2022/03/04 10:55:53;;;;;;;15.37;6.10;;;3.70;99.90;;;;;;5053141;28;20166;-84
2022/03/04 10:58:21;;;;;;;12.80;6.33;;;3.60;99.90;;;;;;5052436;28;20284;-83
2022/03/04 11:00:52;;;;;;;19.70;7.80;;;4.10;99.90;;;;;;5030115;28;20229;-83
2022/03/04 11:03:21;;;;;;;19.50;8.97;;;3.50;99.90;;;;;;5022869;28;20186;-85
2022/03/04 11:05:48;;;;;;;18.90;7.37;;;3.60;99.90;;;;;;5023687;28;20340;-89
2022/03/04 11:08:15;;;;;;;38.73;16.17;;;3.70;99.90;;;;;;5069204;28;20209;-88
2022/03/04 11:10:41;;;;;;;11.60;6.73;;;;;;;;;;5069225;28;20208;-85
2022/03/04 11:13:09;;;;;;;12.33;6.10;;;3.90;99.90;;;;;;5045140;28;20173;-84
2022/03/04 11:15:36;;;;;;;32.47;15.10;;;3.90;99.90;;;;;;5052986;28;20179;-85
2022/03/04 11:18:05;;;;;;;13.10;7.03;;;3.90;99.90;;;;;;5043661;28;20179;-86
2022/03/04 11:20:31;;;;;;;16.33;6.70;;;3.50;99.90;;;;;;5049624;28;20206;-85
2022/03/04 11:22:58;;;;;;;12.23;6.97;;;3.70;99.90;;;;;;5025525;28;20237;-86
2022/03/04 11:25:24;;;;;;;17.27;7.70;;;3.70;99.90;;;;;;5042071;28;20656;-87
2022/03/04 11:27:53;;;;;;;12.37;6.93;;;3.70;99.90;;;;;;5009329;28;20201;-85
2022/03/04 11:30:44;;;;;;;21.07;8.83;;;3.70;99.90;;;;;;5018440;28;20696;-85
2022/03/04 11:33:19;;;;;;;16.83;7.20;;;3.30;99.90;;;;;;5035938;28;20182;-85
2022/03/04 11:36:02;;;;;;;20.70;8.23;;;3.70;99.90;;;;;;5026365;28;20272;-88
2022/03/04 11:38:46;;;;;;;19.37;7.87;;;3.90;99.90;;;;;;5045950;28;20160;-86
2022/03/04 11:41:34;;;;;;;14.53;7.23;;;3.90;99.90;;;;;;5042020;28;20284;-86
2022/03/04 11:44:22;;;;;;;17.13;8.57;;;3.90;99.90;;;;;;5041013;28;20537;-84
2022/03/04 11:46:55;;;;;;;20.47;9.60;;;3.80;99.90;;;;;;5035750;28;20617;-84
2022/03/04 11:49:39;;;;;;;19.17;9.53;;;3.90;99.90;;;;;;5028582;28;20189;-85
2022/03/04 11:52:15;;;;;;;12.70;7.20;;;4.00;99.90;;;;;;5052128;28;20171;-83
2022/03/04 11:54:45;;;;;;;14.13;7.50;;;4.10;99.90;;;;;;5046708;28;20196;-87
2022/03/04 11:57:21;;;;;;;18.83;8.37;;;4.20;99.90;;;;;;5039808;28;20193;-86
2022/03/04 11:59:57;;;;;;;13.83;6.80;;;4.30;99.90;;;;;;5019831;28;20200;-84
2022/03/04 12:02:40;;;;;;;17.27;7.53;;;4.30;99.90;;;;;;5017088;28;20222;-85
2022/03/04 12:05:18;;;;;;;14.00;7.17;;;4.30;99.90;;;;;;5039207;28;20652;-85
2022/03/04 12:07:50;;;;;;;11.50;6.60;;;4.20;99.90;;;;;;5029279;28;20217;-85
2022/03/04 12:10:36;;;;;;;11.53;6.10;;;4.10;99.90;;;;;;5048869;28;20542;-85
2022/03/04 12:13:12;;;;;;;18.00;7.43;;;4.10;99.90;;;;;;5041222;28;20233;-86
2022/03/04 12:15:41;;;;;;;13.23;6.67;;;4.10;99.90;;;;;;5036586;28;20183;-85
2022/03/04 12:18:29;;;;;;;12.90;8.20;;;4.10;99.90;;;;;;5037066;28;20174;-85
2022/03/04 12:21:00;;;;;;;12.93;6.83;;;4.00;99.90;;;;;;5033668;28;20219;-86
2022/03/04 12:23:38;;;;;;;13.23;7.47;;;4.00;99.90;;;;;;5034860;28;20177;-83
2022/03/04 12:26:05;;;;;;;17.20;8.07;;;3.90;99.90;;;;;;5052502;28;20168;-85
2022/03/04 12:28:39;;;;;;;12.33;6.50;;;4.00;99.90;;;;;;5054461;28;20207;-86
2022/03/04 12:31:05;;;;;;;116.73;37.50;;;4.00;99.90;;;;;;5054122;28;20465;-86
2022/03/04 12:33:33;;;;;;;15.23;6.40;;;4.00;99.90;;;;;;5027962;28;20627;-86
2022/03/04 12:36:01;;;;;;;12.67;6.50;;;4.10;99.90;;;;;;5036335;28;20186;-86
2022/03/04 12:38:28;;;;;;;21.23;9.43;;;4.00;99.90;;;;;;5020126;28;20192;-87
2022/03/04 12:41:00;;;;;;;17.77;7.57;;;4.50;99.90;;;;;;5055010;28;20239;-85
2022/03/04 12:43:26;;;;;;;15.97;6.90;;;4.00;99.90;;;;;;5037877;28;20186;-85
2022/03/04 12:45:52;;;;;;;20.63;8.30;;;3.90;99.90;;;;;;5055530;28;20216;-85